createdAt,value
2016-07-29T00:00:29.022Z,21.45
2016-07-29T00:01:29.052Z,21.5
2016-07-29T00:02:28.366Z,21.48
2016-07-29T00:03:28.396Z,21.48
2016-07-29T00:04:28.427Z,21.54
2016-07-29T00:05:28.455Z,21.52
2016-07-29T00:06:28.497Z,21.48
2016-07-29T00:07:28.513Z,21.51
2016-07-29T00:08:28.537Z,21.51
2016-07-29T00:09:28.560Z,21.46
2016-07-29T00:10:28.590Z,21.45
2016-07-29T00:11:28.618Z,21.4
2016-07-29T00:12:28.646Z,21.45
2016-07-29T00:13:28.674Z,21.46
2016-07-29T00:14:29.437Z,21.43
2016-07-29T00:15:28.732Z,21.4
2016-07-29T00:16:28.770Z,21.46
2016-07-29T00:17:28.785Z,21.52
2016-07-29T00:18:29.524Z,21.48
2016-07-29T00:19:28.840Z,21.51
2016-07-29T00:20:28.869Z,21.48
2016-07-29T00:21:28.899Z,21.52
2016-07-29T00:22:28.928Z,21.51
2016-07-29T00:23:28.959Z,21.54
2016-07-29T00:24:28.980Z,21.54
2016-07-29T00:25:29.011Z,21.54
2016-07-29T00:26:29.037Z,21.57
2016-07-29T00:27:29.080Z,21.58
2016-07-29T00:28:29.847Z,21.57
2016-07-29T00:29:29.122Z,21.46
2016-07-29T00:30:29.151Z,21.62
2016-07-29T00:31:29.183Z,21.6
2016-07-29T00:32:29.919Z,21.61
2016-07-29T00:33:29.236Z,21.64
2016-07-29T00:34:29.263Z,21.67
2016-07-29T00:35:29.286Z,21.64
2016-07-29T00:36:29.322Z,21.61
2016-07-29T00:37:30.078Z,21.73
2016-07-29T00:38:29.370Z,21.7
2016-07-29T00:39:29.405Z,21.61
2016-07-29T00:40:29.486Z,21.69
2016-07-29T00:41:29.547Z,21.72
2016-07-29T00:42:29.484Z,21.67
2016-07-29T00:43:29.512Z,21.73
2016-07-29T00:44:30.250Z,21.72
2016-07-29T00:45:30.329Z,21.66
2016-07-29T00:46:29.599Z,21.66
2016-07-29T00:47:29.634Z,21.62
2016-07-29T00:48:29.666Z,21.72
2016-07-29T00:49:29.684Z,21.7
2016-07-29T00:50:29.704Z,21.79
2016-07-29T00:51:29.735Z,21.75
2016-07-29T00:52:29.767Z,21.7
2016-07-29T00:53:29.792Z,21.8
2016-07-29T00:54:29.822Z,21.75
2016-07-29T00:55:29.854Z,21.66
2016-07-29T00:56:29.980Z,21.66
2016-07-29T00:57:29.976Z,21.75
2016-07-29T00:58:30.675Z,21.77
2016-07-29T00:59:30.669Z,21.75
2016-07-29T01:00:29.987Z,21.79
2016-07-29T01:01:30.729Z,21.73
2016-07-29T01:02:30.042Z,21.79
2016-07-29T01:03:30.087Z,21.77
2016-07-29T01:04:30.107Z,21.82
2016-07-29T01:05:30.131Z,21.79
2016-07-29T01:06:30.164Z,21.82
2016-07-29T01:07:30.202Z,21.82
2016-07-29T01:08:30.222Z,21.85
2016-07-29T01:09:30.279Z,21.8
2016-07-29T01:10:30.267Z,21.82
2016-07-29T01:11:31.015Z,21.93
2016-07-29T01:12:30.331Z,21.89
2016-07-29T01:13:30.352Z,21.91
2016-07-29T01:14:30.378Z,21.88
2016-07-29T01:15:30.409Z,21.83
2016-07-29T01:16:30.431Z,21.83
2016-07-29T01:17:30.463Z,21.95
2016-07-29T01:18:30.512Z,21.93
2016-07-29T01:19:30.527Z,21.92
2016-07-29T01:20:30.548Z,21.95
2016-07-29T01:21:30.575Z,21.95
2016-07-29T01:22:31.316Z,22.07
2016-07-29T01:23:30.632Z,22.06
2016-07-29T01:24:31.368Z,22.04
2016-07-29T01:25:30.689Z,22.02
2016-07-29T01:26:30.735Z,22.02
2016-07-29T01:27:30.743Z,22.02
2016-07-29T01:28:30.775Z,22
2016-07-29T01:29:30.800Z,22.11
2016-07-29T01:30:30.827Z,22.02
2016-07-29T01:31:30.855Z,22.02
2016-07-29T01:32:31.593Z,22.1
2016-07-29T01:33:30.913Z,22.1
2016-07-29T01:34:30.941Z,22.11
2016-07-29T01:35:30.968Z,22.07
2016-07-29T01:36:31.706Z,22.04
2016-07-29T01:37:31.026Z,22.02
2016-07-29T01:38:31.763Z,22.08
2016-07-29T01:39:31.081Z,22.1
2016-07-29T01:40:31.110Z,22.04
2016-07-29T01:41:31.135Z,22.06
2016-07-29T01:42:31.165Z,22.11
2016-07-29T01:43:31.906Z,22.13
2016-07-29T01:44:31.222Z,22.1
2016-07-29T01:45:31.253Z,22.04
2016-07-29T01:46:31.275Z,22.06
2016-07-29T01:47:31.309Z,21.99
2016-07-29T01:48:31.335Z,22.06
2016-07-29T01:49:31.366Z,22.04
2016-07-29T01:50:31.402Z,22.04
2016-07-29T01:51:31.422Z,22.04
2016-07-29T01:52:31.457Z,21.98
2016-07-29T01:53:31.495Z,21.96
2016-07-29T01:54:33.113Z,21.95
2016-07-29T01:55:33.680Z,22.02
2016-07-29T01:56:31.564Z,22
2016-07-29T01:57:32.303Z,22.08
2016-07-29T01:58:31.616Z,22.04
2016-07-29T01:59:31.644Z,22
2016-07-29T02:00:32.382Z,22.02
2016-07-29T02:01:31.711Z,22.1
2016-07-29T02:02:31.730Z,22
2016-07-29T02:03:31.761Z,21.99
2016-07-29T02:04:31.786Z,22.02
2016-07-29T02:05:32.524Z,21.98
2016-07-29T02:06:31.840Z,22
2016-07-29T02:07:31.869Z,22.08
2016-07-29T02:08:31.915Z,22
2016-07-29T02:09:31.933Z,22.04
2016-07-29T02:10:31.954Z,22.11
2016-07-29T02:11:31.982Z,22.14
2016-07-29T02:12:32.009Z,22.18
2016-07-29T02:13:32.041Z,22.08
2016-07-29T02:14:32.775Z,22.1
2016-07-29T02:15:32.805Z,22.08
2016-07-29T02:16:32.133Z,22.11
2016-07-29T02:17:32.169Z,22.11
2016-07-29T02:18:32.183Z,22.17
2016-07-29T02:19:32.206Z,22.14
2016-07-29T02:20:32.236Z,22.14
2016-07-29T02:21:32.276Z,22.08
2016-07-29T02:22:32.290Z,22.1
2016-07-29T02:23:32.340Z,22.15
2016-07-29T02:24:32.350Z,22.17
2016-07-29T02:25:32.377Z,22.13
2016-07-29T02:26:32.403Z,22.14
2016-07-29T02:27:32.435Z,22.13
2016-07-29T02:28:32.462Z,22.13
2016-07-29T02:29:32.488Z,22.14
2016-07-29T02:30:32.519Z,22.11
2016-07-29T02:31:33.278Z,22.15
2016-07-29T02:32:32.592Z,22.1
2016-07-29T02:33:32.599Z,22.2
2016-07-29T02:34:32.629Z,22.15
2016-07-29T02:35:32.660Z,22.11
2016-07-29T02:36:32.684Z,22.14
2016-07-29T02:37:32.716Z,22.1
2016-07-29T02:38:32.738Z,22.14
2016-07-29T02:39:32.775Z,22.08
2016-07-29T02:40:32.797Z,22.11
2016-07-29T02:41:32.825Z,22.15
2016-07-29T02:42:32.852Z,22.06
2016-07-29T02:43:32.885Z,22.11
2016-07-29T02:44:33.617Z,22.11
2016-07-29T02:45:32.937Z,22.04
2016-07-29T02:46:32.968Z,22.11
2016-07-29T02:47:33.265Z,22.07
2016-07-29T02:48:33.734Z,22.13
2016-07-29T02:49:33.072Z,22.08
2016-07-29T02:50:33.787Z,22.1
2016-07-29T02:51:33.113Z,22.14
2016-07-29T02:52:33.132Z,22
2016-07-29T02:53:33.161Z,22.06
2016-07-29T02:54:33.188Z,22.02
2016-07-29T02:55:33.222Z,22
2016-07-29T02:56:33.250Z,22.02
2016-07-29T02:57:33.290Z,22.1
2016-07-29T02:58:33.302Z,22.02
2016-07-29T02:59:33.370Z,22.04
2016-07-29T03:00:33.380Z,22.08
2016-07-29T03:01:34.331Z,22.06
2016-07-29T03:03:34.221Z,22.06
2016-07-29T03:04:34.180Z,22.02
2016-07-29T03:05:33.512Z,22.1
2016-07-29T03:06:33.600Z,22.04
2016-07-29T03:07:34.269Z,22.15
2016-07-29T03:08:33.591Z,22.08
2016-07-29T03:09:33.639Z,22.13
2016-07-29T03:10:34.463Z,22.11
2016-07-29T03:11:33.668Z,22.13
2016-07-29T03:12:33.715Z,22.1
2016-07-29T03:13:34.812Z,22.13
2016-07-29T03:14:33.752Z,22.1
2016-07-29T03:15:33.905Z,22.11
2016-07-29T03:16:34.517Z,22.15
2016-07-29T03:17:33.958Z,22.14
2016-07-29T03:18:33.865Z,22.17
2016-07-29T03:19:33.894Z,22.14
2016-07-29T03:20:34.635Z,22.07
2016-07-29T03:21:33.954Z,22.25
2016-07-29T03:22:33.977Z,22.1
2016-07-29T03:23:34.006Z,22.17
2016-07-29T03:24:34.031Z,22.17
2016-07-29T03:25:34.768Z,22.22
2016-07-29T03:26:34.091Z,22.11
2016-07-29T03:27:34.855Z,22.2
2016-07-29T03:28:34.146Z,22.22
2016-07-29T03:29:34.883Z,22.2
2016-07-29T03:30:34.912Z,22.2
2016-07-29T03:31:34.229Z,22.28
2016-07-29T03:33:34.293Z,22.17
2016-07-29T03:34:34.310Z,22.17
2016-07-29T03:35:34.351Z,22.28
2016-07-29T03:36:34.371Z,22.26
2016-07-29T03:37:35.114Z,22.2
2016-07-29T03:38:34.424Z,22.33
2016-07-29T03:39:34.453Z,22.28
2016-07-29T03:40:34.475Z,22.28
2016-07-29T03:41:34.511Z,22.29
2016-07-29T03:42:34.538Z,22.2
2016-07-29T03:43:34.569Z,22.3
2016-07-29T03:44:34.600Z,22.2
2016-07-29T03:45:34.623Z,22.26
2016-07-29T03:46:34.655Z,22.29
2016-07-29T03:48:34.706Z,22.3
2016-07-29T03:49:34.731Z,22.29
2016-07-29T03:50:34.762Z,22.38
2016-07-29T03:51:34.788Z,22.3
2016-07-29T03:52:34.818Z,22.33
2016-07-29T03:53:34.843Z,22.32
2016-07-29T03:54:34.873Z,22.33
2016-07-29T03:55:34.903Z,22.32
2016-07-29T03:56:34.930Z,22.33
2016-07-29T03:57:34.959Z,22.25
2016-07-29T03:58:35.711Z,22.3
2016-07-29T03:59:35.727Z,22.3
2016-07-29T04:00:35.042Z,22.29
2016-07-29T04:01:35.776Z,22.26
2016-07-29T04:03:35.130Z,22.33
2016-07-29T04:04:35.152Z,22.33
2016-07-29T04:05:35.190Z,22.33
2016-07-29T04:06:35.210Z,22.41
2016-07-29T04:07:35.357Z,22.3
2016-07-29T04:08:35.976Z,22.33
2016-07-29T04:09:36.003Z,22.41
2016-07-29T04:10:35.346Z,22.39
2016-07-29T04:11:35.354Z,22.43
2016-07-29T04:12:35.378Z,22.45
2016-07-29T04:13:36.121Z,22.33
2016-07-29T04:14:35.435Z,22.39
2016-07-29T04:15:35.465Z,22.45
2016-07-29T04:16:35.499Z,22.48
2016-07-29T04:17:35.541Z,22.44
2016-07-29T04:18:35.552Z,22.43
2016-07-29T04:19:35.574Z,22.51
2016-07-29T04:20:35.608Z,22.41
2016-07-29T04:21:35.634Z,22.41
2016-07-29T04:22:35.663Z,22.39
2016-07-29T04:23:35.691Z,22.45
2016-07-29T04:24:35.721Z,22.47
2016-07-29T04:25:35.770Z,22.35
2016-07-29T04:26:35.772Z,22.36
2016-07-29T04:27:35.802Z,22.45
2016-07-29T04:28:35.827Z,22.39
2016-07-29T04:29:35.861Z,22.35
2016-07-29T04:30:35.886Z,22.38
2016-07-29T04:31:35.917Z,22.45
2016-07-29T04:32:35.964Z,22.36
2016-07-29T04:33:35.987Z,22.47
2016-07-29T04:34:36.711Z,22.44
2016-07-29T04:35:36.027Z,22.39
2016-07-29T04:36:36.059Z,22.45
2016-07-29T04:37:36.093Z,22.55
2016-07-29T04:38:36.123Z,22.47
2016-07-29T04:39:36.142Z,22.48
2016-07-29T04:40:36.900Z,22.47
2016-07-29T04:41:36.207Z,22.48
2016-07-29T04:42:36.228Z,22.51
2016-07-29T04:43:36.259Z,22.51
2016-07-29T04:44:36.990Z,22.53
2016-07-29T04:45:36.310Z,22.48
2016-07-29T04:46:36.339Z,22.43
2016-07-29T04:47:36.371Z,22.45
2016-07-29T04:48:36.396Z,22.44
2016-07-29T04:49:36.427Z,22.36
2016-07-29T04:50:36.478Z,22.38
2016-07-29T04:51:36.481Z,22.41
2016-07-29T04:52:36.510Z,22.44
2016-07-29T04:53:36.534Z,22.45
2016-07-29T04:54:36.579Z,22.41
2016-07-29T04:55:36.591Z,22.47
2016-07-29T04:56:36.628Z,22.43
2016-07-29T04:57:36.654Z,22.41
2016-07-29T04:58:36.695Z,22.54
2016-07-29T04:59:36.707Z,22.41
2016-07-29T05:00:36.739Z,22.5
2016-07-29T05:01:37.473Z,22.44
2016-07-29T05:02:36.793Z,22.47
2016-07-29T05:03:36.822Z,22.5
2016-07-29T05:04:36.845Z,22.54
2016-07-29T05:05:36.903Z,22.53
2016-07-29T05:06:36.911Z,22.57
2016-07-29T05:07:36.935Z,22.54
2016-07-29T05:08:36.962Z,22.47
2016-07-29T05:09:36.994Z,22.53
2016-07-29T05:10:37.023Z,22.53
2016-07-29T05:11:37.045Z,22.51
2016-07-29T05:12:37.077Z,22.48
2016-07-29T05:13:37.131Z,22.51
2016-07-29T05:14:37.131Z,22.51
2016-07-29T05:15:37.162Z,22.48
2016-07-29T05:16:37.898Z,22.62
2016-07-29T05:17:37.218Z,22.51
2016-07-29T05:18:37.243Z,22.53
2016-07-29T05:19:37.986Z,22.55
2016-07-29T05:20:37.323Z,22.6
2016-07-29T05:21:37.335Z,22.55
2016-07-29T05:22:37.360Z,22.65
2016-07-29T05:23:37.389Z,22.65
2016-07-29T05:24:38.126Z,22.65
2016-07-29T05:25:37.446Z,22.68
2016-07-29T05:26:37.474Z,22.59
2016-07-29T05:27:37.513Z,22.63
2016-07-29T05:28:38.261Z,22.65
2016-07-29T05:29:37.559Z,22.68
2016-07-29T05:30:38.297Z,22.66
2016-07-29T05:31:37.624Z,22.65
2016-07-29T05:32:37.645Z,22.65
2016-07-29T05:33:37.671Z,22.66
2016-07-29T05:34:37.700Z,22.65
2016-07-29T05:35:37.731Z,22.65
2016-07-29T05:36:37.768Z,22.62
2016-07-29T05:37:37.786Z,22.63
2016-07-29T05:38:37.819Z,22.6
2016-07-29T05:39:37.842Z,22.6
2016-07-29T05:40:37.878Z,22.53
2016-07-29T05:41:38.611Z,22.59
2016-07-29T05:42:37.940Z,22.62
2016-07-29T05:43:38.662Z,22.57
2016-07-29T05:44:37.991Z,22.53
2016-07-29T05:45:38.015Z,22.59
2016-07-29T05:46:38.751Z,22.53
2016-07-29T05:47:38.090Z,22.55
2016-07-29T05:48:38.100Z,22.63
2016-07-29T05:49:38.838Z,22.6
2016-07-29T05:50:38.153Z,22.53
2016-07-29T05:51:38.180Z,22.55
2016-07-29T05:52:38.925Z,22.54
2016-07-29T05:53:38.244Z,22.65
2016-07-29T05:54:38.270Z,22.65
2016-07-29T05:55:38.306Z,22.6
2016-07-29T05:56:38.327Z,22.62
2016-07-29T05:57:38.405Z,22.62
2016-07-29T05:58:39.089Z,22.57
2016-07-29T05:59:38.415Z,22.62
2016-07-29T06:00:38.437Z,22.65
2016-07-29T06:01:39.184Z,22.62
2016-07-29T06:02:38.512Z,22.6
2016-07-29T06:03:38.529Z,22.63
2016-07-29T06:04:38.561Z,22.57
2016-07-29T06:05:38.581Z,22.57
2016-07-29T06:06:40.043Z,22.59
2016-07-29T06:07:38.636Z,22.62
2016-07-29T06:08:38.663Z,22.6
2016-07-29T06:09:38.696Z,22.65
2016-07-29T06:10:39.450Z,22.62
2016-07-29T06:11:38.754Z,22.68
2016-07-29T06:12:38.782Z,22.65
2016-07-29T06:13:38.807Z,22.63
2016-07-29T06:14:38.835Z,22.68
2016-07-29T06:15:38.867Z,22.75
2016-07-29T06:16:38.892Z,22.8
2016-07-29T06:17:38.938Z,22.85
2016-07-29T06:18:38.937Z,22.85
2016-07-29T06:19:38.978Z,22.87
2016-07-29T06:20:39.011Z,22.84
2016-07-29T06:21:39.040Z,22.94
2016-07-29T06:22:39.067Z,22.91
2016-07-29T06:23:39.805Z,22.98
2016-07-29T06:24:39.120Z,23.02
2016-07-29T06:25:39.872Z,23.02
2016-07-29T06:26:39.889Z,23.02
2016-07-29T06:27:39.205Z,23.03
2016-07-29T06:28:39.239Z,23.02
2016-07-29T06:29:39.271Z,23.02
2016-07-29T06:30:39.294Z,22.99
2016-07-29T06:31:40.035Z,22.99
2016-07-29T06:32:39.352Z,23
2016-07-29T06:34:40.122Z,23.06
2016-07-29T06:35:39.450Z,23.12
2016-07-29T06:36:39.472Z,23.12
2016-07-29T06:37:39.495Z,23.17
2016-07-29T06:38:39.537Z,23.18
2016-07-29T06:39:39.554Z,23.17
2016-07-29T06:40:39.582Z,23.17
2016-07-29T06:41:39.615Z,23.18
2016-07-29T06:42:39.655Z,23.15
2016-07-29T06:43:39.668Z,23.13
2016-07-29T06:44:39.702Z,23.21
2016-07-29T06:45:39.727Z,23.21
2016-07-29T06:46:39.756Z,23.25
2016-07-29T06:47:39.786Z,23.25
2016-07-29T06:48:40.530Z,23.24
2016-07-29T06:49:40.650Z,23.2
2016-07-29T06:50:40.577Z,23.2
2016-07-29T06:51:39.901Z,23.09
2016-07-29T06:52:39.926Z,23.05
2016-07-29T06:53:39.959Z,23.05
2016-07-29T06:54:39.984Z,23.06
2016-07-29T06:55:40.721Z,22.99
2016-07-29T06:56:40.045Z,23.08
2016-07-29T06:57:40.085Z,23.03
2016-07-29T06:58:40.102Z,23.06
2016-07-29T06:59:40.127Z,22.99
2016-07-29T07:00:40.868Z,23.03
2016-07-29T07:01:40.191Z,23.05
2016-07-29T07:02:40.217Z,23.09
2016-07-29T07:03:40.244Z,23.08
2016-07-29T07:04:40.985Z,23.09
2016-07-29T07:05:40.299Z,23.09
2016-07-29T07:06:40.346Z,23.08
2016-07-29T07:07:40.367Z,23.1
2016-07-29T07:08:40.385Z,23.08
2016-07-29T07:09:40.415Z,23.06
2016-07-29T07:10:40.446Z,23.03
2016-07-29T07:11:40.484Z,22.99
2016-07-29T07:12:41.211Z,23.03
2016-07-29T07:13:40.537Z,23.05
2016-07-29T07:14:40.557Z,23.03
2016-07-29T07:15:41.298Z,23.05
2016-07-29T07:16:41.326Z,23.09
2016-07-29T07:17:41.355Z,23.1
2016-07-29T07:18:40.683Z,23.17
2016-07-29T07:19:40.705Z,23.13
2016-07-29T07:20:40.736Z,23.21
2016-07-29T07:21:40.756Z,23.25
2016-07-29T07:22:41.498Z,23.23
2016-07-29T07:23:40.836Z,23.21
2016-07-29T07:24:40.851Z,23.21
2016-07-29T07:25:40.873Z,23.28
2016-07-29T07:26:40.902Z,23.27
2016-07-29T07:27:40.941Z,23.32
2016-07-29T07:28:40.964Z,23.36
2016-07-29T07:29:41.701Z,23.41
2016-07-29T07:30:41.045Z,23.36
2016-07-29T07:31:41.051Z,23.47
2016-07-29T07:32:41.089Z,23.32
2016-07-29T07:33:41.814Z,23.36
2016-07-29T07:34:41.155Z,23.36
2016-07-29T07:35:41.165Z,23.43
2016-07-29T07:36:41.193Z,23.37
2016-07-29T07:37:41.222Z,23.37
2016-07-29T07:38:41.265Z,23.37
2016-07-29T07:39:41.284Z,23.43
2016-07-29T07:40:41.310Z,23.4
2016-07-29T07:41:41.343Z,23.36
2016-07-29T07:42:41.367Z,23.48
2016-07-29T07:43:41.398Z,23.54
2016-07-29T07:44:41.437Z,23.5
2016-07-29T07:45:41.456Z,23.44
2016-07-29T07:46:42.200Z,23.56
2016-07-29T07:47:41.513Z,23.59
2016-07-29T07:48:41.557Z,23.61
2016-07-29T07:49:41.572Z,23.61
2016-07-29T07:50:41.604Z,23.55
2016-07-29T07:51:41.627Z,23.56
2016-07-29T07:52:41.662Z,23.62
2016-07-29T07:53:42.402Z,23.62
2016-07-29T07:54:41.720Z,23.71
2016-07-29T07:55:42.474Z,23.71
2016-07-29T07:56:41.777Z,23.77
2016-07-29T07:57:41.803Z,23.83
2016-07-29T07:58:42.543Z,23.83
2016-07-29T07:59:41.861Z,23.87
2016-07-29T08:00:41.907Z,23.91
2016-07-29T08:01:41.918Z,23.88
2016-07-29T08:02:41.966Z,23.88
2016-07-29T08:03:41.970Z,23.95
2016-07-29T08:04:42.016Z,23.92
2016-07-29T08:05:42.037Z,23.84
2016-07-29T08:06:42.067Z,23.92
2016-07-29T08:07:42.096Z,23.98
2016-07-29T08:08:42.136Z,23.91
2016-07-29T08:09:42.152Z,24.03
2016-07-29T08:10:42.187Z,24.06
2016-07-29T08:11:42.282Z,24.1
2016-07-29T08:12:42.242Z,24.13
2016-07-29T08:13:42.272Z,24.18
2016-07-29T08:14:42.304Z,24.17
2016-07-29T08:15:42.332Z,24.28
2016-07-29T08:16:42.357Z,24.33
2016-07-29T08:17:42.394Z,24.38
2016-07-29T08:18:42.413Z,24.54
2016-07-29T08:19:42.449Z,24.53
2016-07-29T08:20:42.482Z,24.55
2016-07-29T08:21:42.516Z,24.54
2016-07-29T08:22:42.548Z,24.57
2016-07-29T08:23:43.277Z,24.58
2016-07-29T08:24:42.597Z,24.5
2016-07-29T08:25:42.634Z,24.55
2016-07-29T08:26:43.366Z,24.61
2016-07-29T08:27:42.688Z,24.66
2016-07-29T08:28:42.723Z,24.6
2016-07-29T08:29:42.747Z,24.54
2016-07-29T08:30:42.776Z,24.55
2016-07-29T08:31:42.813Z,24.51
2016-07-29T08:32:43.555Z,24.6
2016-07-29T08:33:42.884Z,24.63
2016-07-29T08:34:42.895Z,24.58
2016-07-29T08:35:42.926Z,24.58
2016-07-29T08:36:42.951Z,24.51
2016-07-29T08:37:42.983Z,24.48
2016-07-29T08:38:43.016Z,24.47
2016-07-29T08:39:43.040Z,24.5
2016-07-29T08:40:43.075Z,24.54
2016-07-29T08:41:43.814Z,24.5
2016-07-29T08:42:43.853Z,24.5
2016-07-29T08:43:43.165Z,24.54
2016-07-29T08:44:43.924Z,24.54
2016-07-29T08:45:43.226Z,24.55
2016-07-29T08:46:43.249Z,24.63
2016-07-29T08:47:43.282Z,24.57
2016-07-29T08:49:43.347Z,24.57
2016-07-29T08:50:43.371Z,24.57
2016-07-29T08:51:43.418Z,24.58
2016-07-29T08:52:43.455Z,24.54
2016-07-29T08:53:43.459Z,24.61
2016-07-29T08:54:44.206Z,24.66
2016-07-29T08:55:43.519Z,24.6
2016-07-29T08:56:43.556Z,24.57
2016-07-29T08:57:43.579Z,24.66
2016-07-29T08:58:44.317Z,24.54
2016-07-29T08:59:44.359Z,24.61
2016-07-29T09:00:44.391Z,24.53
2016-07-29T09:01:43.697Z,24.54
2016-07-29T09:02:43.729Z,24.5
2016-07-29T09:04:43.787Z,24.4
2016-07-29T09:05:43.820Z,24.43
2016-07-29T09:06:43.846Z,24.42
2016-07-29T09:07:44.590Z,24.57
2016-07-29T09:08:43.908Z,24.57
2016-07-29T09:09:44.651Z,24.51
2016-07-29T09:10:44.677Z,24.57
2016-07-29T09:11:43.995Z,24.61
2016-07-29T09:12:44.034Z,24.76
2016-07-29T09:13:44.056Z,24.78
2016-07-29T09:14:44.089Z,24.86
2016-07-29T09:15:44.116Z,24.91
2016-07-29T09:16:44.167Z,24.98
2016-07-29T09:17:44.177Z,24.99
2016-07-29T09:18:44.209Z,24.93
2016-07-29T09:19:44.238Z,25.1
2016-07-29T09:20:44.273Z,25.03
2016-07-29T09:21:44.296Z,24.99
2016-07-29T09:22:44.323Z,25.06
2016-07-29T09:23:44.356Z,25.11
2016-07-29T09:24:45.101Z,25.11
2016-07-29T09:25:44.422Z,25.21
2016-07-29T09:26:44.464Z,25.18
2016-07-29T09:27:44.476Z,25.22
2016-07-29T09:28:44.511Z,25.22
2016-07-29T09:29:44.533Z,25.22
2016-07-29T09:30:44.566Z,25.23
2016-07-29T09:31:44.601Z,25.21
2016-07-29T09:32:44.629Z,25.21
2016-07-29T09:33:44.670Z,25.21
2016-07-29T09:34:44.685Z,25.18
2016-07-29T09:35:44.719Z,25.21
2016-07-29T09:36:44.755Z,25.18
2016-07-29T09:37:44.782Z,25.17
2016-07-29T09:38:44.814Z,25.26
2016-07-29T09:39:44.840Z,25.21
2016-07-29T09:40:44.878Z,25.1
2016-07-29T09:41:44.923Z,25.07
2016-07-29T09:42:44.931Z,25.11
2016-07-29T09:43:44.961Z,25.22
2016-07-29T09:44:44.990Z,25.18
2016-07-29T09:45:45.023Z,25.1
2016-07-29T09:46:45.061Z,25.11
2016-07-29T09:47:45.805Z,25.1
2016-07-29T09:48:45.825Z,25.11
2016-07-29T09:49:45.143Z,25.1
2016-07-29T09:50:45.172Z,25.11
2016-07-29T09:51:46.625Z,25.18
2016-07-29T09:52:45.233Z,25.17
2016-07-29T09:53:45.974Z,25.18
2016-07-29T09:54:45.291Z,25.25
2016-07-29T09:55:45.320Z,25.21
2016-07-29T09:56:45.350Z,25.25
2016-07-29T09:57:45.439Z,25.22
2016-07-29T09:58:45.416Z,25.22
2016-07-29T09:59:45.444Z,25.25
2016-07-29T10:00:45.473Z,25.16
2016-07-29T10:01:45.501Z,25.14
2016-07-29T10:02:45.535Z,25.1
2016-07-29T10:03:45.561Z,25.06
2016-07-29T10:04:45.592Z,25.1
2016-07-29T10:05:45.623Z,25.07
2016-07-29T10:06:46.363Z,25.08
2016-07-29T10:07:45.702Z,25.13
2016-07-29T10:08:45.715Z,25.11
2016-07-29T10:09:45.745Z,25.07
2016-07-29T10:10:45.775Z,25.11
2016-07-29T10:11:45.804Z,25.1
2016-07-29T10:12:45.832Z,25.11
2016-07-29T10:13:46.578Z,25.21
2016-07-29T10:14:46.606Z,25.22
2016-07-29T10:15:45.929Z,25.21
2016-07-29T10:16:45.958Z,25.25
2016-07-29T10:17:45.986Z,25.36
2016-07-29T10:18:46.018Z,25.35
2016-07-29T10:19:46.048Z,25.29
2016-07-29T10:20:46.077Z,25.38
2016-07-29T10:21:46.114Z,25.35
2016-07-29T10:22:46.139Z,25.46
2016-07-29T10:23:46.168Z,25.44
2016-07-29T10:24:46.195Z,25.51
2016-07-29T10:25:46.226Z,25.65
2016-07-29T10:26:46.259Z,25.69
2016-07-29T10:27:46.290Z,25.69
2016-07-29T10:28:46.318Z,25.72
2016-07-29T10:29:46.350Z,25.8
2016-07-29T10:30:46.382Z,25.85
2016-07-29T10:31:47.124Z,25.91
2016-07-29T10:32:46.444Z,25.85
2016-07-29T10:33:47.894Z,25.91
2016-07-29T10:34:46.503Z,25.9
2016-07-29T10:35:46.532Z,25.88
2016-07-29T10:36:46.564Z,25.91
2016-07-29T10:37:46.593Z,25.96
2016-07-29T10:38:46.637Z,25.87
2016-07-29T10:39:48.073Z,25.93
2016-07-29T10:40:46.686Z,25.96
2016-07-29T10:41:46.717Z,25.84
2016-07-29T10:42:46.749Z,25.91
2016-07-29T10:43:46.778Z,25.91
2016-07-29T10:44:46.805Z,25.9
2016-07-29T10:45:46.839Z,25.88
2016-07-29T10:46:46.869Z,25.93
2016-07-29T10:47:46.902Z,25.95
2016-07-29T10:48:46.939Z,26.05
2016-07-29T10:49:46.964Z,26.13
2016-07-29T10:50:46.993Z,26.18
2016-07-29T10:51:47.023Z,26.31
2016-07-29T10:52:47.052Z,26.29
2016-07-29T10:53:47.089Z,26.38
2016-07-29T10:54:47.132Z,26.37
2016-07-29T10:55:47.862Z,26.37
2016-07-29T10:56:47.176Z,26.37
2016-07-29T10:57:47.213Z,26.38
2016-07-29T10:58:47.242Z,26.37
2016-07-29T10:59:47.980Z,26.41
2016-07-29T11:00:47.304Z,26.28
2016-07-29T11:01:47.333Z,26.38
2016-07-29T11:02:47.364Z,26.36
2016-07-29T11:03:47.396Z,26.4
2016-07-29T11:04:47.437Z,26.51
2016-07-29T11:05:47.467Z,26.55
2016-07-29T11:06:47.485Z,26.63
2016-07-29T11:07:47.521Z,26.68
2016-07-29T11:08:47.549Z,26.71
2016-07-29T11:09:47.582Z,26.8
2016-07-29T11:10:47.615Z,26.83
2016-07-29T11:11:48.382Z,26.92
2016-07-29T11:12:48.388Z,26.97
2016-07-29T11:13:47.705Z,27.03
2016-07-29T11:14:47.741Z,27.05
2016-07-29T11:15:47.770Z,27.2
2016-07-29T11:16:47.813Z,27.26
2016-07-29T11:17:47.838Z,27.3
2016-07-29T11:18:47.867Z,27.2
2016-07-29T11:19:47.899Z,27.22
2016-07-29T11:20:48.637Z,27.44
2016-07-29T11:21:47.964Z,27.47
2016-07-29T11:22:48.699Z,27.37
2016-07-29T11:23:48.023Z,27.45
2016-07-29T11:24:48.055Z,27.45
2016-07-29T11:25:48.082Z,27.51
2016-07-29T11:26:48.119Z,27.55
2016-07-29T11:27:48.153Z,27.54
2016-07-29T11:28:48.186Z,27.51
2016-07-29T11:29:48.212Z,27.54
2016-07-29T11:30:48.245Z,27.51
2016-07-29T11:31:48.985Z,27.55
2016-07-29T11:32:48.307Z,27.7
2016-07-29T11:33:48.342Z,27.67
2016-07-29T11:34:48.370Z,27.67
2016-07-29T11:35:48.406Z,27.7
2016-07-29T11:36:49.143Z,27.65
2016-07-29T11:37:48.476Z,27.7
2016-07-29T11:38:48.499Z,27.55
2016-07-29T11:39:48.532Z,27.54
2016-07-29T11:40:48.562Z,27.47
2016-07-29T11:41:49.303Z,27.36
2016-07-29T11:42:48.627Z,27.39
2016-07-29T11:43:49.373Z,27.4
2016-07-29T11:44:48.899Z,27.47
2016-07-29T11:45:49.433Z,27.4
2016-07-29T11:46:48.762Z,27.33
2016-07-29T11:47:48.786Z,27.26
2016-07-29T11:48:48.817Z,27.21
2016-07-29T11:49:48.851Z,27.21
2016-07-29T11:50:49.681Z,27.21
2016-07-29T11:51:49.630Z,27.22
2016-07-29T11:52:49.678Z,27.36
2016-07-29T11:53:48.981Z,27.21
2016-07-29T11:54:49.014Z,27.25
2016-07-29T11:55:49.749Z,27.33
2016-07-29T11:56:49.081Z,27.4
2016-07-29T11:57:49.105Z,27.33
2016-07-29T11:58:49.138Z,27.39
2016-07-29T11:59:49.169Z,27.42
2016-07-29T12:00:49.195Z,27.45
2016-07-29T12:01:49.233Z,27.42
2016-07-29T12:02:49.971Z,27.49
2016-07-29T12:03:49.295Z,27.37
2016-07-29T12:04:49.326Z,27.45
2016-07-29T12:05:50.075Z,27.4
2016-07-29T12:06:49.392Z,27.42
2016-07-29T12:07:49.421Z,27.49
2016-07-29T12:08:49.453Z,27.55
2016-07-29T12:09:49.484Z,27.44
2016-07-29T12:10:49.527Z,27.45
2016-07-29T12:11:49.566Z,27.48
2016-07-29T12:12:49.583Z,27.55
2016-07-29T12:13:49.611Z,27.48
2016-07-29T12:14:49.646Z,27.59
2016-07-29T12:15:50.385Z,27.58
2016-07-29T12:16:49.731Z,27.75
2016-07-29T12:17:49.844Z,27.68
2016-07-29T12:18:49.775Z,27.71
2016-07-29T12:19:49.819Z,27.8
2016-07-29T12:20:49.843Z,27.96
2016-07-29T12:21:49.874Z,28.01
2016-07-29T12:22:49.909Z,27.95
2016-07-29T12:23:49.933Z,28.11
2016-07-29T12:24:50.686Z,28.08
2016-07-29T12:25:50.713Z,28.11
2016-07-29T12:26:50.029Z,28.22
2016-07-29T12:27:50.081Z,28.2
2016-07-29T12:28:50.803Z,28.3
2016-07-29T12:29:50.124Z,28.38
2016-07-29T12:30:50.867Z,28.33
2016-07-29T12:31:50.899Z,28.29
2016-07-29T12:32:50.222Z,28.3
2016-07-29T12:33:50.255Z,28.27
2016-07-29T12:34:51.008Z,28.44
2016-07-29T12:35:51.161Z,28.39
2016-07-29T12:36:50.369Z,28.41
2016-07-29T12:37:50.389Z,28.44
2016-07-29T12:38:50.419Z,28.48
2016-07-29T12:39:50.447Z,28.56
2016-07-29T12:40:50.482Z,28.59
2016-07-29T12:41:50.510Z,28.63
2016-07-29T12:42:51.284Z,28.66
2016-07-29T12:43:50.579Z,28.72
2016-07-29T12:44:50.613Z,28.67
2016-07-29T12:45:50.644Z,28.69
2016-07-29T12:46:51.384Z,28.69
2016-07-29T12:47:50.714Z,28.74
2016-07-29T12:48:50.742Z,28.75
2016-07-29T12:49:50.776Z,28.82
2016-07-29T12:50:50.810Z,28.79
2016-07-29T12:51:50.839Z,28.78
2016-07-29T12:52:50.887Z,28.78
2016-07-29T12:53:51.034Z,28.75
2016-07-29T12:54:50.940Z,28.75
2016-07-29T12:55:51.683Z,28.78
2016-07-29T12:56:51.715Z,28.78
2016-07-29T12:57:51.037Z,28.89
2016-07-29T12:58:51.807Z,28.96
2016-07-29T12:59:51.104Z,29.02
2016-07-29T13:00:51.140Z,29.07
2016-07-29T13:01:51.877Z,29.13
2016-07-29T13:02:51.930Z,29.19
2016-07-29T13:03:51.234Z,29.13